sensor_id;sensor_type;location;lat;lon;timestamp;temperature;humidity
20141;DHT22;10231;47.702;9.826;2023-02-28T00:00:19;-0.50;99.90
20141;DHT22;10231;47.702;9.826;2023-02-28T00:02:45;-0.50;99.90
20141;DHT22;10231;47.702;9.826;2023-02-28T00:05:14;-0.50;99.90
20141;DHT22;10231;47.702;9.826;2023-02-28T00:07:40;-0.50;99.90
20141;DHT22;10231;47.702;9.826;2023-02-28T00:10:06;-0.50;99.90
20141;DHT22;10231;47.702;9.826;2023-02-28T00:12:33;-0.40;99.90
20141;DHT22;10231;47.702;9.826;2023-02-28T00:14:59;-0.50;99.90
20141;DHT22;10231;47.702;9.826;2023-02-28T00:17:24;-0.50;99.90
20141;DHT22;10231;47.702;9.826;2023-02-28T00:19:51;-0.50;99.90
20141;DHT22;10231;47.702;9.826;2023-02-28T00:22:21;-0.50;99.90
20141;DHT22;10231;47.702;9.826;2023-02-28T00:24:47;-0.50;99.90
20141;DHT22;10231;47.702;9.826;2023-02-28T00:27:13;-0.50;99.90
20141;DHT22;10231;47.702;9.826;2023-02-28T00:29:39;-0.50;99.90
20141;DHT22;10231;47.702;9.826;2023-02-28T00:32:06;-0.40;99.90
20141;DHT22;10231;47.702;9.826;2023-02-28T00:34:32;-0.40;99.90
20141;DHT22;10231;47.702;9.826;2023-02-28T00:37:04;-0.40;99.90
20141;DHT22;10231;47.702;9.826;2023-02-28T00:39:30;-0.40;99.90
20141;DHT22;10231;47.702;9.826;2023-02-28T00:41:56;-0.40;99.90
20141;DHT22;10231;47.702;9.826;2023-02-28T00:44:22;-0.30;99.90
20141;DHT22;10231;47.702;9.826;2023-02-28T00:46:47;-0.40;99.90
20141;DHT22;10231;47.702;9.826;2023-02-28T00:49:13;-0.40;99.90
20141;DHT22;10231;47.702;9.826;2023-02-28T00:51:38;-0.40;99.90
20141;DHT22;10231;47.702;9.826;2023-02-28T00:54:04;-0.40;99.90
20141;DHT22;10231;47.702;9.826;2023-02-28T00:56:29;-0.40;99.90
20141;DHT22;10231;47.702;9.826;2023-02-28T00:58:55;-0.40;99.90
20141;DHT22;10231;47.702;9.826;2023-02-28T01:01:20;-0.40;99.90
20141;DHT22;10231;47.702;9.826;2023-02-28T01:03:46;-0.50;99.90
20141;DHT22;10231;47.702;9.826;2023-02-28T01:06:11;-0.50;99.90
20141;DHT22;10231;47.702;9.826;2023-02-28T01:08:37;-0.50;99.90
20141;DHT22;10231;47.702;9.826;2023-02-28T01:11:11;-0.50;99.90
20141;DHT22;10231;47.702;9.826;2023-02-28T01:13:36;-0.50;99.90
20141;DHT22;10231;47.702;9.826;2023-02-28T01:16:02;-0.50;99.90
20141;DHT22;10231;47.702;9.826;2023-02-28T01:18:28;-0.50;99.90
20141;DHT22;10231;47.702;9.826;2023-02-28T01:20:54;-0.50;99.90
20141;DHT22;10231;47.702;9.826;2023-02-28T01:23:20;-0.50;99.90
20141;DHT22;10231;47.702;9.826;2023-02-28T01:25:49;-0.50;99.90
20141;DHT22;10231;47.702;9.826;2023-02-28T01:28:14;-0.50;99.90
20141;DHT22;10231;47.702;9.826;2023-02-28T01:30:40;-0.50;99.90
20141;DHT22;10231;47.702;9.826;2023-02-28T01:33:05;-0.50;99.90
20141;DHT22;10231;47.702;9.826;2023-02-28T01:35:35;-0.50;99.90
20141;DHT22;10231;47.702;9.826;2023-02-28T01:38:01;-0.50;99.90
20141;DHT22;10231;47.702;9.826;2023-02-28T01:40:27;-0.50;99.90
20141;DHT22;10231;47.702;9.826;2023-02-28T01:42:52;-0.60;99.90
20141;DHT22;10231;47.702;9.826;2023-02-28T01:45:29;-0.60;99.90
20141;DHT22;10231;47.702;9.826;2023-02-28T01:48:00;-0.50;99.90
20141;DHT22;10231;47.702;9.826;2023-02-28T01:50:31;-0.50;99.90
20141;DHT22;10231;47.702;9.826;2023-02-28T01:53:02;-0.50;99.90
20141;DHT22;10231;47.702;9.826;2023-02-28T01:55:30;-0.60;99.90
20141;DHT22;10231;47.702;9.826;2023-02-28T01:57:58;-0.60;99.90
20141;DHT22;10231;47.702;9.826;2023-02-28T02:00:26;-0.60;99.90
20141;DHT22;10231;47.702;9.826;2023-02-28T02:02:58;-0.60;99.90
20141;DHT22;10231;47.702;9.826;2023-02-28T02:05:26;-0.60;99.90
20141;DHT22;10231;47.702;9.826;2023-02-28T02:08:01;-0.60;99.90
20141;DHT22;10231;47.702;9.826;2023-02-28T02:10:35;-0.60;99.90
20141;DHT22;10231;47.702;9.826;2023-02-28T02:13:10;-0.60;99.90
20141;DHT22;10231;47.702;9.826;2023-02-28T02:15:44;-0.60;99.90
20141;DHT22;10231;47.702;9.826;2023-02-28T02:18:26;-0.60;99.90
20141;DHT22;10231;47.702;9.826;2023-02-28T02:32:22;-0.80;99.90
20141;DHT22;10231;47.702;9.826;2023-02-28T02:37:25;-0.80;99.90
20141;DHT22;10231;47.702;9.826;2023-02-28T02:40:18;-0.80;99.90
20141;DHT22;10231;47.702;9.826;2023-02-28T02:42:53;-0.80;99.90
20141;DHT22;10231;47.702;9.826;2023-02-28T02:45:31;-0.80;99.90
20141;DHT22;10231;47.702;9.826;2023-02-28T02:48:02;-0.80;99.90
20141;DHT22;10231;47.702;9.826;2023-02-28T02:50:38;-0.90;99.90
20141;DHT22;10231;47.702;9.826;2023-02-28T02:53:06;-0.90;99.90
20141;DHT22;10231;47.702;9.826;2023-02-28T02:55:36;-1.00;99.90
20141;DHT22;10231;47.702;9.826;2023-02-28T02:58:07;-0.90;99.90
20141;DHT22;10231;47.702;9.826;2023-02-28T03:00:41;-0.90;99.90
20141;DHT22;10231;47.702;9.826;2023-02-28T03:03:09;-1.00;99.90
20141;DHT22;10231;47.702;9.826;2023-02-28T03:05:47;-1.00;99.90
20141;DHT22;10231;47.702;9.826;2023-02-28T03:08:13;-1.00;99.90
20141;DHT22;10231;47.702;9.826;2023-02-28T03:10:45;-1.00;99.90
20141;DHT22;10231;47.702;9.826;2023-02-28T03:21:51;-0.90;99.90
20141;DHT22;10231;47.702;9.826;2023-02-28T03:26:58;-1.00;99.90
20141;DHT22;10231;47.702;9.826;2023-02-28T03:29:37;-1.00;99.90
20141;DHT22;10231;47.702;9.826;2023-02-28T03:32:11;-1.00;99.90
20141;DHT22;10231;47.702;9.826;2023-02-28T03:34:52;-0.90;99.90
20141;DHT22;10231;47.702;9.826;2023-02-28T03:37:24;-0.90;99.90
20141;DHT22;10231;47.702;9.826;2023-02-28T03:39:57;-0.90;99.90
20141;DHT22;10231;47.702;9.826;2023-02-28T03:42:27;-1.00;99.90
20141;DHT22;10231;47.702;9.826;2023-02-28T03:45:03;-1.00;99.90
20141;DHT22;10231;47.702;9.826;2023-02-28T03:47:54;-1.10;99.90
20141;DHT22;10231;47.702;9.826;2023-02-28T03:50:36;-1.00;99.90
20141;DHT22;10231;47.702;9.826;2023-02-28T03:53:19;-1.00;99.90
20141;DHT22;10231;47.702;9.826;2023-02-28T03:55:58;-1.00;99.90
20141;DHT22;10231;47.702;9.826;2023-02-28T04:01:25;-1.00;99.90
20141;DHT22;10231;47.702;9.826;2023-02-28T04:03:52;-0.90;99.90
20141;DHT22;10231;47.702;9.826;2023-02-28T04:06:20;-1.00;99.90
20141;DHT22;10231;47.702;9.826;2023-02-28T04:08:46;-1.00;99.90
20141;DHT22;10231;47.702;9.826;2023-02-28T04:11:27;-1.00;99.90
20141;DHT22;10231;47.702;9.826;2023-02-28T04:13:55;-0.90;99.90
20141;DHT22;10231;47.702;9.826;2023-02-28T04:16:21;-0.90;99.90
20141;DHT22;10231;47.702;9.826;2023-02-28T04:18:46;-0.90;99.90
20141;DHT22;10231;47.702;9.826;2023-02-28T04:21:12;-0.90;99.90
20141;DHT22;10231;47.702;9.826;2023-02-28T04:23:38;-0.90;99.90
20141;DHT22;10231;47.702;9.826;2023-02-28T04:26:04;-0.90;99.90
20141;DHT22;10231;47.702;9.826;2023-02-28T04:28:31;-0.90;99.90
20141;DHT22;10231;47.702;9.826;2023-02-28T04:31:00;-0.90;99.90
20141;DHT22;10231;47.702;9.826;2023-02-28T04:33:25;-0.90;99.90
20141;DHT22;10231;47.702;9.826;2023-02-28T04:36:07;-0.90;99.90
20141;DHT22;10231;47.702;9.826;2023-02-28T04:38:38;-0.80;99.90
20141;DHT22;10231;47.702;9.826;2023-02-28T04:41:04;-0.80;99.90
20141;DHT22;10231;47.702;9.826;2023-02-28T04:43:30;-0.80;99.90
20141;DHT22;10231;47.702;9.826;2023-02-28T04:45:57;-0.80;99.90
20141;DHT22;10231;47.702;9.826;2023-02-28T04:48:30;-0.80;99.90
20141;DHT22;10231;47.702;9.826;2023-02-28T04:51:00;-0.80;99.90
20141;DHT22;10231;47.702;9.826;2023-02-28T04:53:27;-0.80;99.90
20141;DHT22;10231;47.702;9.826;2023-02-28T04:55:53;-0.80;99.90
20141;DHT22;10231;47.702;9.826;2023-02-28T04:58:19;-0.80;99.90
20141;DHT22;10231;47.702;9.826;2023-02-28T05:00:44;-0.80;99.90
20141;DHT22;10231;47.702;9.826;2023-02-28T05:03:10;-0.80;99.90
20141;DHT22;10231;47.702;9.826;2023-02-28T05:05:35;-0.70;99.90
20141;DHT22;10231;47.702;9.826;2023-02-28T05:08:01;-0.70;99.90
20141;DHT22;10231;47.702;9.826;2023-02-28T05:10:26;-0.70;99.90
20141;DHT22;10231;47.702;9.826;2023-02-28T05:12:52;-0.60;99.90
20141;DHT22;10231;47.702;9.826;2023-02-28T05:15:18;-0.70;99.90
20141;DHT22;10231;47.702;9.826;2023-02-28T05:17:43;-0.80;99.90
20141;DHT22;10231;47.702;9.826;2023-02-28T05:20:10;-0.80;99.90
20141;DHT22;10231;47.702;9.826;2023-02-28T05:22:39;-0.80;99.90
20141;DHT22;10231;47.702;9.826;2023-02-28T05:25:05;-0.70;99.90
20141;DHT22;10231;47.702;9.826;2023-02-28T05:27:31;-0.70;99.90
20141;DHT22;10231;47.702;9.826;2023-02-28T05:29:57;-0.80;99.90
20141;DHT22;10231;47.702;9.826;2023-02-28T05:32:23;-0.70;99.90
20141;DHT22;10231;47.702;9.826;2023-02-28T05:34:48;-0.80;99.90
20141;DHT22;10231;47.702;9.826;2023-02-28T05:37:14;-0.80;99.90
20141;DHT22;10231;47.702;9.826;2023-02-28T05:39:41;-0.80;99.90
20141;DHT22;10231;47.702;9.826;2023-02-28T05:42:06;-0.80;99.90
20141;DHT22;10231;47.702;9.826;2023-02-28T05:44:33;-0.90;99.90
20141;DHT22;10231;47.702;9.826;2023-02-28T05:46:58;-0.90;99.90
20141;DHT22;10231;47.702;9.826;2023-02-28T05:49:24;-0.90;99.90
20141;DHT22;10231;47.702;9.826;2023-02-28T05:51:49;-0.90;99.90
20141;DHT22;10231;47.702;9.826;2023-02-28T05:54:15;-0.90;99.90
20141;DHT22;10231;47.702;9.826;2023-02-28T05:56:41;-0.90;99.90
20141;DHT22;10231;47.702;9.826;2023-02-28T05:59:10;-0.90;99.90
20141;DHT22;10231;47.702;9.826;2023-02-28T06:04:06;-0.90;99.90
20141;DHT22;10231;47.702;9.826;2023-02-28T06:06:31;-1.00;99.90
20141;DHT22;10231;47.702;9.826;2023-02-28T06:08:59;-0.90;99.90
20141;DHT22;10231;47.702;9.826;2023-02-28T06:11:26;-0.90;99.90
20141;DHT22;10231;47.702;9.826;2023-02-28T06:13:56;-1.00;99.90
20141;DHT22;10231;47.702;9.826;2023-02-28T06:16:23;-1.00;99.90
20141;DHT22;10231;47.702;9.826;2023-02-28T06:18:48;-1.00;99.90
20141;DHT22;10231;47.702;9.826;2023-02-28T06:21:14;-1.00;99.90
20141;DHT22;10231;47.702;9.826;2023-02-28T06:23:40;-1.00;99.90
20141;DHT22;10231;47.702;9.826;2023-02-28T06:26:06;-1.00;99.90
20141;DHT22;10231;47.702;9.826;2023-02-28T06:28:32;-1.00;99.90
20141;DHT22;10231;47.702;9.826;2023-02-28T06:30:57;-1.00;99.90
20141;DHT22;10231;47.702;9.826;2023-02-28T06:33:24;-1.00;99.90
20141;DHT22;10231;47.702;9.826;2023-02-28T06:35:51;-1.00;99.90
20141;DHT22;10231;47.702;9.826;2023-02-28T06:38:17;-1.00;99.90
20141;DHT22;10231;47.702;9.826;2023-02-28T06:40:43;-1.00;99.90
20141;DHT22;10231;47.702;9.826;2023-02-28T06:43:09;-1.10;99.90
20141;DHT22;10231;47.702;9.826;2023-02-28T06:45:41;-1.10;99.90
20141;DHT22;10231;47.702;9.826;2023-02-28T06:48:07;-1.00;99.90
20141;DHT22;10231;47.702;9.826;2023-02-28T06:50:32;-1.00;99.90
20141;DHT22;10231;47.702;9.826;2023-02-28T06:52:58;-1.00;99.90
20141;DHT22;10231;47.702;9.826;2023-02-28T06:55:24;-0.90;99.90
20141;DHT22;10231;47.702;9.826;2023-02-28T06:57:49;-0.90;99.90
20141;DHT22;10231;47.702;9.826;2023-02-28T07:00:16;-0.90;99.90
20141;DHT22;10231;47.702;9.826;2023-02-28T07:02:41;-0.90;99.90
20141;DHT22;10231;47.702;9.826;2023-02-28T07:05:07;-0.80;99.90
20141;DHT22;10231;47.702;9.826;2023-02-28T07:07:33;-0.80;99.90
20141;DHT22;10231;47.702;9.826;2023-02-28T07:09:59;-0.90;99.90
20141;DHT22;10231;47.702;9.826;2023-02-28T07:12:25;-0.80;99.90
20141;DHT22;10231;47.702;9.826;2023-02-28T07:14:50;-0.90;99.90
20141;DHT22;10231;47.702;9.826;2023-02-28T07:17:16;-0.90;99.90
20141;DHT22;10231;47.702;9.826;2023-02-28T07:19:41;-0.90;99.90
20141;DHT22;10231;47.702;9.826;2023-02-28T07:22:07;-0.80;99.90
20141;DHT22;10231;47.702;9.826;2023-02-28T07:24:33;-0.70;99.90
20141;DHT22;10231;47.702;9.826;2023-02-28T07:26:58;-0.70;99.90
20141;DHT22;10231;47.702;9.826;2023-02-28T07:29:25;-0.70;99.90
20141;DHT22;10231;47.702;9.826;2023-02-28T07:31:50;-0.70;99.90
20141;DHT22;10231;47.702;9.826;2023-02-28T07:34:18;-0.70;99.90
20141;DHT22;10231;47.702;9.826;2023-02-28T07:36:44;-0.70;99.90
20141;DHT22;10231;47.702;9.826;2023-02-28T07:39:10;-0.70;99.90
20141;DHT22;10231;47.702;9.826;2023-02-28T07:41:35;-0.70;99.90
20141;DHT22;10231;47.702;9.826;2023-02-28T07:44:04;-0.60;99.90
20141;DHT22;10231;47.702;9.826;2023-02-28T07:46:30;-0.50;99.90
20141;DHT22;10231;47.702;9.826;2023-02-28T07:49:00;-0.50;99.90
20141;DHT22;10231;47.702;9.826;2023-02-28T07:51:29;-0.60;99.90
20141;DHT22;10231;47.702;9.826;2023-02-28T07:53:54;-0.60;99.90
20141;DHT22;10231;47.702;9.826;2023-02-28T07:56:20;-0.50;99.90
20141;DHT22;10231;47.702;9.826;2023-02-28T07:58:46;-0.50;99.90
20141;DHT22;10231;47.702;9.826;2023-02-28T08:01:12;-0.50;99.90
20141;DHT22;10231;47.702;9.826;2023-02-28T08:03:38;-0.50;99.90
20141;DHT22;10231;47.702;9.826;2023-02-28T08:06:05;-0.50;99.90
20141;DHT22;10231;47.702;9.826;2023-02-28T08:08:31;-0.50;99.90
20141;DHT22;10231;47.702;9.826;2023-02-28T08:11:01;-0.50;99.90
20141;DHT22;10231;47.702;9.826;2023-02-28T08:13:28;-0.50;99.90
20141;DHT22;10231;47.702;9.826;2023-02-28T08:15:55;-0.50;99.90
20141;DHT22;10231;47.702;9.826;2023-02-28T08:18:21;-0.50;99.90
20141;DHT22;10231;47.702;9.826;2023-02-28T08:20:47;-0.50;99.90
20141;DHT22;10231;47.702;9.826;2023-02-28T08:23:13;-0.40;99.90
20141;DHT22;10231;47.702;9.826;2023-02-28T08:25:39;-0.50;99.90
20141;DHT22;10231;47.702;9.826;2023-02-28T08:28:04;-0.40;99.90
20141;DHT22;10231;47.702;9.826;2023-02-28T08:30:30;-0.40;99.90
20141;DHT22;10231;47.702;9.826;2023-02-28T08:32:55;-0.40;99.90
20141;DHT22;10231;47.702;9.826;2023-02-28T08:35:21;-0.40;99.90
20141;DHT22;10231;47.702;9.826;2023-02-28T08:37:48;-0.40;99.90
20141;DHT22;10231;47.702;9.826;2023-02-28T08:40:14;-0.40;99.90
20141;DHT22;10231;47.702;9.826;2023-02-28T08:42:44;-0.40;99.90
20141;DHT22;10231;47.702;9.826;2023-02-28T08:45:10;-0.40;99.90
20141;DHT22;10231;47.702;9.826;2023-02-28T08:47:36;-0.30;99.90
20141;DHT22;10231;47.702;9.826;2023-02-28T08:50:01;-0.30;99.90
20141;DHT22;10231;47.702;9.826;2023-02-28T08:52:27;-0.30;99.90
20141;DHT22;10231;47.702;9.826;2023-02-28T08:54:53;-0.30;99.90
20141;DHT22;10231;47.702;9.826;2023-02-28T08:57:18;-0.30;99.90
20141;DHT22;10231;47.702;9.826;2023-02-28T08:59:44;-0.20;99.90
20141;DHT22;10231;47.702;9.826;2023-02-28T09:02:12;-0.20;99.90
20141;DHT22;10231;47.702;9.826;2023-02-28T09:04:38;-0.10;99.90
20141;DHT22;10231;47.702;9.826;2023-02-28T09:07:04;-0.20;99.90
20141;DHT22;10231;47.702;9.826;2023-02-28T09:09:29;-0.20;99.90
20141;DHT22;10231;47.702;9.826;2023-02-28T09:11:56;-0.10;99.90
20141;DHT22;10231;47.702;9.826;2023-02-28T09:14:22;0.00;99.90
20141;DHT22;10231;47.702;9.826;2023-02-28T09:16:47;-0.10;99.90
20141;DHT22;10231;47.702;9.826;2023-02-28T09:19:13;-0.10;99.90
20141;DHT22;10231;47.702;9.826;2023-02-28T09:21:39;0.00;99.90
20141;DHT22;10231;47.702;9.826;2023-02-28T09:24:05;0.10;99.90
20141;DHT22;10231;47.702;9.826;2023-02-28T09:26:30;0.10;99.90
20141;DHT22;10231;47.702;9.826;2023-02-28T09:28:56;0.10;99.90
20141;DHT22;10231;47.702;9.826;2023-02-28T09:31:26;0.10;99.90
20141;DHT22;10231;47.702;9.826;2023-02-28T09:33:53;0.10;99.90
20141;DHT22;10231;47.702;9.826;2023-02-28T09:36:19;0.10;99.90
20141;DHT22;10231;47.702;9.826;2023-02-28T09:38:45;0.20;99.90
20141;DHT22;10231;47.702;9.826;2023-02-28T09:41:20;0.20;99.90
20141;DHT22;10231;47.702;9.826;2023-02-28T09:43:50;0.30;99.90
20141;DHT22;10231;47.702;9.826;2023-02-28T09:46:38;0.30;99.90
20141;DHT22;10231;47.702;9.826;2023-02-28T09:49:11;0.40;99.90
20141;DHT22;10231;47.702;9.826;2023-02-28T09:51:47;0.40;99.90
20141;DHT22;10231;47.702;9.826;2023-02-28T09:54:20;0.50;99.90
20141;DHT22;10231;47.702;9.826;2023-02-28T09:59:38;0.50;99.90
20141;DHT22;10231;47.702;9.826;2023-02-28T10:02:41;0.50;99.90
20141;DHT22;10231;47.702;9.826;2023-02-28T10:05:12;0.60;99.90
20141;DHT22;10231;47.702;9.826;2023-02-28T10:12:47;0.50;99.90
20141;DHT22;10231;47.702;9.826;2023-02-28T10:15:16;0.60;99.90
20141;DHT22;10231;47.702;9.826;2023-02-28T10:17:45;0.60;99.90
20141;DHT22;10231;47.702;9.826;2023-02-28T10:20:17;0.60;99.90
20141;DHT22;10231;47.702;9.826;2023-02-28T10:25:28;0.70;99.90
20141;DHT22;10231;47.702;9.826;2023-02-28T10:27:58;0.80;99.90
20141;DHT22;10231;47.702;9.826;2023-02-28T10:30:26;0.80;99.90
20141;DHT22;10231;47.702;9.826;2023-02-28T10:32:52;0.90;99.90
20141;DHT22;10231;47.702;9.826;2023-02-28T10:35:20;0.90;99.90
20141;DHT22;10231;47.702;9.826;2023-02-28T10:37:49;0.90;99.90
20141;DHT22;10231;47.702;9.826;2023-02-28T10:45:20;1.10;99.90
20141;DHT22;10231;47.702;9.826;2023-02-28T10:47:57;1.20;99.90
20141;DHT22;10231;47.702;9.826;2023-02-28T10:53:32;1.10;99.90
20141;DHT22;10231;47.702;9.826;2023-02-28T11:01:16;1.20;99.90
20141;DHT22;10231;47.702;9.826;2023-02-28T11:03:42;1.30;99.90
20141;DHT22;10231;47.702;9.826;2023-02-28T11:06:20;1.40;99.90
20141;DHT22;10231;47.702;9.826;2023-02-28T11:08:54;1.40;99.90
20141;DHT22;10231;47.702;9.826;2023-02-28T11:11:21;1.50;99.90
20141;DHT22;10231;47.702;9.826;2023-02-28T11:13:52;1.40;99.90
20141;DHT22;10231;47.702;9.826;2023-02-28T11:16:18;1.40;99.90
20141;DHT22;10231;47.702;9.826;2023-02-28T11:18:53;1.50;99.90
20141;DHT22;10231;47.702;9.826;2023-02-28T11:21:26;1.60;99.90
20141;DHT22;10231;47.702;9.826;2023-02-28T11:24:01;1.70;99.90
20141;DHT22;10231;47.702;9.826;2023-02-28T11:26:39;1.70;99.90
20141;DHT22;10231;47.702;9.826;2023-02-28T11:29:12;1.80;99.90
20141;DHT22;10231;47.702;9.826;2023-02-28T11:31:41;1.90;99.90
20141;DHT22;10231;47.702;9.826;2023-02-28T11:34:26;1.90;99.90
20141;DHT22;10231;47.702;9.826;2023-02-28T11:36:55;1.90;99.90
20141;DHT22;10231;47.702;9.826;2023-02-28T11:39:22;2.00;99.90
20141;DHT22;10231;47.702;9.826;2023-02-28T11:47:03;2.00;99.90
20141;DHT22;10231;47.702;9.826;2023-02-28T11:49:32;2.00;99.90
20141;DHT22;10231;47.702;9.826;2023-02-28T11:54:59;1.90;99.90
20141;DHT22;10231;47.702;9.826;2023-02-28T11:57:39;2.00;99.90
20141;DHT22;10231;47.702;9.826;2023-02-28T12:00:39;2.00;99.90
20141;DHT22;10231;47.702;9.826;2023-02-28T12:03:30;2.00;99.90
20141;DHT22;10231;47.702;9.826;2023-02-28T12:06:21;2.10;99.90
20141;DHT22;10231;47.702;9.826;2023-02-28T12:19:40;2.10;99.90
20141;DHT22;10231;47.702;9.826;2023-02-28T12:22:22;2.10;99.90
20141;DHT22;10231;47.702;9.826;2023-02-28T12:27:40;2.10;99.90
20141;DHT22;10231;47.702;9.826;2023-02-28T12:32:47;2.10;99.90
20141;DHT22;10231;47.702;9.826;2023-02-28T12:35:18;2.10;99.90
20141;DHT22;10231;47.702;9.826;2023-02-28T12:37:46;2.10;99.90
20141;DHT22;10231;47.702;9.826;2023-02-28T12:40:20;2.20;99.90
20141;DHT22;10231;47.702;9.826;2023-02-28T12:42:51;2.20;99.90
20141;DHT22;10231;47.702;9.826;2023-02-28T12:45:20;2.20;99.90
20141;DHT22;10231;47.702;9.826;2023-02-28T12:47:52;2.10;99.90
20141;DHT22;10231;47.702;9.826;2023-02-28T12:50:21;2.10;99.90
20141;DHT22;10231;47.702;9.826;2023-02-28T12:53:09;2.10;99.90
20141;DHT22;10231;47.702;9.826;2023-02-28T12:55:58;2.10;99.90
20141;DHT22;10231;47.702;9.826;2023-02-28T13:01:26;1.90;99.90
20141;DHT22;10231;47.702;9.826;2023-02-28T13:09:55;1.80;99.90
20141;DHT22;10231;47.702;9.826;2023-02-28T13:12:21;1.80;99.90
20141;DHT22;10231;47.702;9.826;2023-02-28T13:14:48;1.80;99.90
20141;DHT22;10231;47.702;9.826;2023-02-28T13:17:22;1.80;99.90
20141;DHT22;10231;47.702;9.826;2023-02-28T13:24:55;1.70;99.90
20141;DHT22;10231;47.702;9.826;2023-02-28T13:27:34;1.60;99.90
20141;DHT22;10231;47.702;9.826;2023-02-28T13:30:00;1.60;99.90
20141;DHT22;10231;47.702;9.826;2023-02-28T13:32:34;1.60;99.90
20141;DHT22;10231;47.702;9.826;2023-02-28T13:39:56;1.60;99.90
20141;DHT22;10231;47.702;9.826;2023-02-28T13:47:48;1.50;99.90
20141;DHT22;10231;47.702;9.826;2023-02-28T13:59:03;1.50;99.90
20141;DHT22;10231;47.702;9.826;2023-02-28T14:01:56;1.50;99.90
20141;DHT22;10231;47.702;9.826;2023-02-28T14:04:44;1.50;99.90
20141;DHT22;10231;47.702;9.826;2023-02-28T14:07:23;1.50;99.90
20141;DHT22;10231;47.702;9.826;2023-02-28T14:09:56;1.50;99.90
20141;DHT22;10231;47.702;9.826;2023-02-28T14:15:41;1.40;99.90
20141;DHT22;10231;47.702;9.826;2023-02-28T14:21:28;1.50;99.90
20141;DHT22;10231;47.702;9.826;2023-02-28T14:24:38;1.50;99.90
20141;DHT22;10231;47.702;9.826;2023-02-28T14:32:41;1.60;99.90
20141;DHT22;10231;47.702;9.826;2023-02-28T14:38:05;1.50;99.90
20141;DHT22;10231;47.702;9.826;2023-02-28T14:40:35;1.40;99.90
20141;DHT22;10231;47.702;9.826;2023-02-28T14:43:06;1.40;99.90
20141;DHT22;10231;47.702;9.826;2023-02-28T14:45:34;1.40;99.90
20141;DHT22;10231;47.702;9.826;2023-02-28T14:48:04;1.40;99.90
20141;DHT22;10231;47.702;9.826;2023-02-28T14:50:36;1.30;99.90
20141;DHT22;10231;47.702;9.826;2023-02-28T14:53:03;1.30;99.90
20141;DHT22;10231;47.702;9.826;2023-02-28T14:55:31;1.30;99.90
20141;DHT22;10231;47.702;9.826;2023-02-28T14:58:06;1.20;99.90
20141;DHT22;10231;47.702;9.826;2023-02-28T15:00:34;1.20;99.90
20141;DHT22;10231;47.702;9.826;2023-02-28T15:03:30;1.20;99.90
20141;DHT22;10231;47.702;9.826;2023-02-28T15:06:04;1.30;99.90
20141;DHT22;10231;47.702;9.826;2023-02-28T15:08:31;1.20;99.90
20141;DHT22;10231;47.702;9.826;2023-02-28T15:11:11;1.20;99.90
20141;DHT22;10231;47.702;9.826;2023-02-28T15:13:44;1.10;99.90
20141;DHT22;10231;47.702;9.826;2023-02-28T15:16:26;1.10;99.90
20141;DHT22;10231;47.702;9.826;2023-02-28T15:21:34;1.00;99.90
20141;DHT22;10231;47.702;9.826;2023-02-28T15:26:37;1.10;99.90
20141;DHT22;10231;47.702;9.826;2023-02-28T15:29:11;1.10;99.90
20141;DHT22;10231;47.702;9.826;2023-02-28T15:31:49;1.00;99.90
20141;DHT22;10231;47.702;9.826;2023-02-28T15:34:20;1.00;99.90
20141;DHT22;10231;47.702;9.826;2023-02-28T15:36:47;1.00;99.90
20141;DHT22;10231;47.702;9.826;2023-02-28T15:39:28;1.00;99.90
20141;DHT22;10231;47.702;9.826;2023-02-28T15:42:20;1.00;99.90
20141;DHT22;10231;47.702;9.826;2023-02-28T15:44:46;1.00;99.90
20141;DHT22;10231;47.702;9.826;2023-02-28T15:47:26;1.00;99.90
20141;DHT22;10231;47.702;9.826;2023-02-28T15:49:59;1.00;99.90
20141;DHT22;10231;47.702;9.826;2023-02-28T15:52:30;1.00;99.90
20141;DHT22;10231;47.702;9.826;2023-02-28T15:57:56;0.90;99.90
20141;DHT22;10231;47.702;9.826;2023-02-28T16:00:26;1.00;99.90
20141;DHT22;10231;47.702;9.826;2023-02-28T16:02:52;0.90;99.90
20141;DHT22;10231;47.702;9.826;2023-02-28T16:05:30;1.00;99.90
20141;DHT22;10231;47.702;9.826;2023-02-28T16:08:06;0.90;99.90
20141;DHT22;10231;47.702;9.826;2023-02-28T16:10:36;0.90;99.90
20141;DHT22;10231;47.702;9.826;2023-02-28T16:13:02;1.00;99.90
20141;DHT22;10231;47.702;9.826;2023-02-28T16:15:32;0.90;99.90
20141;DHT22;10231;47.702;9.826;2023-02-28T16:18:00;1.00;99.90
20141;DHT22;10231;47.702;9.826;2023-02-28T16:20:30;1.00;99.90
20141;DHT22;10231;47.702;9.826;2023-02-28T16:22:56;1.00;99.90
20141;DHT22;10231;47.702;9.826;2023-02-28T16:25:34;0.90;99.90
20141;DHT22;10231;47.702;9.826;2023-02-28T16:28:01;1.00;99.90
20141;DHT22;10231;47.702;9.826;2023-02-28T16:30:28;1.00;99.90
20141;DHT22;10231;47.702;9.826;2023-02-28T16:32:57;1.00;99.90
20141;DHT22;10231;47.702;9.826;2023-02-28T16:35:23;1.00;99.90
20141;DHT22;10231;47.702;9.826;2023-02-28T16:37:50;0.90;99.90
20141;DHT22;10231;47.702;9.826;2023-02-28T16:40:22;0.90;99.90
20141;DHT22;10231;47.702;9.826;2023-02-28T16:42:54;0.90;99.90
20141;DHT22;10231;47.702;9.826;2023-02-28T16:45:26;0.90;99.90
20141;DHT22;10231;47.702;9.826;2023-02-28T16:47:52;0.90;99.90
20141;DHT22;10231;47.702;9.826;2023-02-28T16:50:23;0.80;99.90
20141;DHT22;10231;47.702;9.826;2023-02-28T16:52:50;0.90;99.90
20141;DHT22;10231;47.702;9.826;2023-02-28T16:55:17;0.80;99.90
20141;DHT22;10231;47.702;9.826;2023-02-28T16:57:44;0.80;99.90
20141;DHT22;10231;47.702;9.826;2023-02-28T17:00:13;0.70;99.90
20141;DHT22;10231;47.702;9.826;2023-02-28T17:02:39;0.60;99.90
20141;DHT22;10231;47.702;9.826;2023-02-28T17:05:05;0.60;99.90
20141;DHT22;10231;47.702;9.826;2023-02-28T17:07:32;0.60;99.90
20141;DHT22;10231;47.702;9.826;2023-02-28T17:09:58;0.60;99.90
20141;DHT22;10231;47.702;9.826;2023-02-28T17:12:25;0.50;99.90
20141;DHT22;10231;47.702;9.826;2023-02-28T17:14:51;0.50;99.90
20141;DHT22;10231;47.702;9.826;2023-02-28T17:17:20;0.40;99.90
20141;DHT22;10231;47.702;9.826;2023-02-28T17:19:46;0.40;99.90
20141;DHT22;10231;47.702;9.826;2023-02-28T17:22:12;0.40;99.90
20141;DHT22;10231;47.702;9.826;2023-02-28T17:24:37;0.40;99.90
20141;DHT22;10231;47.702;9.826;2023-02-28T17:27:04;0.40;99.90
20141;DHT22;10231;47.702;9.826;2023-02-28T17:29:30;0.30;99.90
20141;DHT22;10231;47.702;9.826;2023-02-28T17:31:55;0.30;99.90
20141;DHT22;10231;47.702;9.826;2023-02-28T17:34:21;0.30;99.90
20141;DHT22;10231;47.702;9.826;2023-02-28T17:36:50;0.20;99.90
20141;DHT22;10231;47.702;9.826;2023-02-28T17:39:17;0.20;99.90
20141;DHT22;10231;47.702;9.826;2023-02-28T17:41:53;0.20;99.90
20141;DHT22;10231;47.702;9.826;2023-02-28T17:44:20;0.20;99.90
20141;DHT22;10231;47.702;9.826;2023-02-28T17:46:47;0.20;99.90
20141;DHT22;10231;47.702;9.826;2023-02-28T17:49:13;0.20;99.90
20141;DHT22;10231;47.702;9.826;2023-02-28T17:51:38;0.10;99.90
20141;DHT22;10231;47.702;9.826;2023-02-28T17:54:04;0.10;99.90
20141;DHT22;10231;47.702;9.826;2023-02-28T17:56:31;0.10;99.90
20141;DHT22;10231;47.702;9.826;2023-02-28T17:58:57;0.10;99.90
20141;DHT22;10231;47.702;9.826;2023-02-28T18:01:23;0.00;99.90
20141;DHT22;10231;47.702;9.826;2023-02-28T18:03:51;0.00;99.90
20141;DHT22;10231;47.702;9.826;2023-02-28T18:06:23;0.10;99.90